createdAt,value
2022-12-20T00:02:18.644Z,9.15
2022-12-20T00:04:45.421Z,8.13
2022-12-20T00:07:12.126Z,9.85
2022-12-20T00:09:38.814Z,8.85
2022-12-20T00:12:05.570Z,11.40
2022-12-20T00:14:32.350Z,10.85
2022-12-20T00:16:58.961Z,9.32
2022-12-20T00:21:51.031Z,12.00
2022-12-20T00:24:23.875Z,11.05
2022-12-20T00:26:52.605Z,15.77
2022-12-20T00:29:19.265Z,11.25
2022-12-20T00:31:46.062Z,14.13
2022-12-20T00:34:12.802Z,10.27
2022-12-20T00:36:39.873Z,13.93
2022-12-20T00:41:33.607Z,11.65
2022-12-20T00:44:00.837Z,11.93
2022-12-20T00:46:28.016Z,10.75
2022-12-20T00:48:55.032Z,12.45
2022-12-20T00:51:23.071Z,16.30
2022-12-20T00:53:50.079Z,11.13
2022-12-20T00:56:17.054Z,12.50
2022-12-20T00:58:44.119Z,7.15
2022-12-20T01:01:19.204Z,9.02
2022-12-20T01:03:48.325Z,14.70
2022-12-20T01:06:15.321Z,8.85
2022-12-20T01:08:42.144Z,8.18
2022-12-20T01:11:18.759Z,10.55
2022-12-20T01:18:45.761Z,8.80
2022-12-20T01:21:13.818Z,10.25
2022-12-20T01:23:40.519Z,11.18
2022-12-20T01:26:11.386Z,10.30
2022-12-20T01:28:38.921Z,11.30
2022-12-20T01:31:09.876Z,12.32
2022-12-20T01:38:30.319Z,12.77
2022-12-20T01:45:53.076Z,10.15
2022-12-20T01:48:24.193Z,7.53
2022-12-20T01:50:51.733Z,12.25
2022-12-20T01:53:20.105Z,7.82
2022-12-20T02:00:40.061Z,12.13
2022-12-20T02:08:01.086Z,11.50
2022-12-20T02:10:33.125Z,14.77
2022-12-20T02:20:49.623Z,10.18
2022-12-20T02:23:16.285Z,7.00
2022-12-20T02:25:43.043Z,8.85
2022-12-20T02:30:38.546Z,9.30
2022-12-20T02:33:07.555Z,14.35
2022-12-20T02:35:36.762Z,18.48
2022-12-20T02:48:29.407Z,7.40
2022-12-20T02:50:57.986Z,8.00
2022-12-20T02:56:07.262Z,6.65
2022-12-20T02:58:36.523Z,9.43
2022-12-20T03:01:06.610Z,11.55
2022-12-20T03:03:34.994Z,13.55
2022-12-20T03:06:01.873Z,10.15
2022-12-20T03:08:30.267Z,9.30
2022-12-20T03:10:56.914Z,11.07
2022-12-20T03:13:24.856Z,9.07
2022-12-20T03:18:23.088Z,11.40
2022-12-20T03:20:49.957Z,10.98
2022-12-20T03:23:16.767Z,9.20
2022-12-20T03:25:43.595Z,8.13
2022-12-20T03:28:16.070Z,11.23
2022-12-20T03:30:42.942Z,8.43
2022-12-20T03:33:10.207Z,9.07
2022-12-20T03:35:36.816Z,11.25
2022-12-20T03:40:29.175Z,9.75
2022-12-20T03:42:56.510Z,11.05
2022-12-20T03:55:05.814Z,7.60
2022-12-20T04:00:05.009Z,18.25
2022-12-20T04:02:41.546Z,11.27
2022-12-20T04:05:10.558Z,8.60
2022-12-20T04:07:38.055Z,8.07
2022-12-20T04:10:05.223Z,9.73
2022-12-20T04:12:32.662Z,8.70
2022-12-20T04:14:59.402Z,13.98
2022-12-20T04:19:53.053Z,12.50
2022-12-20T04:22:20.469Z,11.05
2022-12-20T04:24:56.555Z,7.28
2022-12-20T04:27:30.801Z,11.48
2022-12-20T04:32:22.878Z,8.27
2022-12-20T04:34:50.032Z,9.90
2022-12-20T04:39:42.995Z,9.27
2022-12-20T04:44:51.440Z,10.98
2022-12-20T04:47:23.770Z,9.00
2022-12-20T04:49:51.994Z,14.07
2022-12-20T04:52:40.843Z,12.18
2022-12-20T04:55:11.117Z,12.82
2022-12-20T04:57:37.890Z,14.40
2022-12-20T05:00:06.619Z,12.65
2022-12-20T05:04:58.722Z,12.15
2022-12-20T05:07:26.106Z,11.43
2022-12-20T05:12:20.750Z,11.50
2022-12-20T05:14:47.736Z,10.05
2022-12-20T05:19:43.074Z,13.45
2022-12-20T05:22:31.419Z,13.10
2022-12-20T05:25:16.530Z,13.38
2022-12-20T05:27:43.922Z,12.52
2022-12-20T05:30:11.030Z,10.20
2022-12-20T05:37:28.699Z,14.07
2022-12-20T05:40:00.185Z,7.80
2022-12-20T05:44:52.277Z,10.52
2022-12-20T05:47:21.305Z,8.35
2022-12-20T05:54:43.913Z,8.07
2022-12-20T05:57:16.128Z,6.85
2022-12-20T05:59:42.871Z,7.60
2022-12-20T06:04:41.167Z,5.78
2022-12-20T06:07:15.828Z,7.50
2022-12-20T06:09:45.609Z,6.38
2022-12-20T06:12:12.307Z,8.23
2022-12-20T06:14:39.152Z,6.55
2022-12-20T06:17:05.952Z,7.32
2022-12-20T06:19:32.819Z,8.60
2022-12-20T06:22:01.180Z,11.60
2022-12-20T06:24:47.905Z,5.70
2022-12-20T06:29:40.974Z,6.47
2022-12-20T06:32:10.566Z,5.93
2022-12-20T06:37:03.698Z,5.03
2022-12-20T06:39:33.355Z,9.75
2022-12-20T06:44:30.220Z,6.70
2022-12-20T06:46:57.084Z,9.98
2022-12-20T06:51:56.102Z,6.78
2022-12-20T06:56:56.098Z,7.40
2022-12-20T06:59:23.980Z,7.82
2022-12-20T07:06:43.520Z,6.95
2022-12-20T07:09:13.543Z,5.55
2022-12-20T07:11:40.441Z,7.25
2022-12-20T07:14:07.165Z,6.40
2022-12-20T07:16:33.916Z,4.07
2022-12-20T07:28:43.044Z,5.80
2022-12-20T07:31:09.818Z,5.72
2022-12-20T07:36:06.300Z,6.32
2022-12-20T07:38:33.604Z,6.13
2022-12-20T07:41:00.378Z,4.65
2022-12-20T07:43:27.685Z,6.07
2022-12-20T07:45:57.603Z,8.40
2022-12-20T07:48:24.613Z,5.35
2022-12-20T07:53:24.311Z,4.30
2022-12-20T07:55:51.209Z,3.58
2022-12-20T07:58:18.978Z,3.72
2022-12-20T08:00:46.000Z,3.33
2022-12-20T08:03:15.661Z,5.28
2022-12-20T08:05:43.840Z,2.85
2022-12-20T08:10:37.239Z,3.67
2022-12-20T08:13:04.739Z,3.97
2022-12-20T08:15:31.420Z,3.25
2022-12-20T08:22:49.032Z,5.35
2022-12-20T08:25:15.802Z,7.72
2022-12-20T08:27:42.540Z,3.65
2022-12-20T08:30:10.579Z,3.08
2022-12-20T08:37:28.826Z,4.53
2022-12-20T08:39:55.575Z,3.72
2022-12-20T08:42:23.652Z,4.97
2022-12-20T08:52:07.806Z,5.78
2022-12-20T08:56:59.977Z,4.68
2022-12-20T08:59:26.844Z,4.55
2022-12-20T09:06:46.207Z,3.75
2022-12-20T09:09:37.515Z,6.15
2022-12-20T09:12:04.298Z,3.58
2022-12-20T09:14:30.947Z,4.22
2022-12-20T09:19:23.392Z,5.78
2022-12-20T09:21:50.222Z,2.78
2022-12-20T09:24:17.573Z,4.45
2022-12-20T09:26:45.681Z,6.32
2022-12-20T09:29:19.508Z,5.13
2022-12-20T09:34:17.374Z,12.88
2022-12-20T09:36:44.074Z,11.35
2022-12-20T09:39:11.021Z,11.35
2022-12-20T09:44:06.205Z,6.40
2022-12-20T09:46:33.437Z,4.57
2022-12-20T09:56:43.890Z,6.32
2022-12-20T09:59:14.808Z,8.18
2022-12-20T10:01:48.397Z,8.52
2022-12-20T10:04:24.496Z,5.97
2022-12-20T10:09:30.642Z,4.72
2022-12-20T10:12:01.761Z,5.38
2022-12-20T10:14:31.630Z,6.25
2022-12-20T10:17:12.183Z,5.18
2022-12-20T10:19:48.000Z,5.43
2022-12-20T10:22:17.815Z,5.82
2022-12-20T10:24:48.158Z,6.10
2022-12-20T10:27:19.627Z,6.82
2022-12-20T10:29:46.971Z,5.13
2022-12-20T10:32:18.792Z,5.35
2022-12-20T10:35:05.659Z,4.97
2022-12-20T10:37:32.328Z,4.60
2022-12-20T10:40:03.590Z,4.45
2022-12-20T10:47:43.100Z,6.05
2022-12-20T10:50:14.201Z,7.28
2022-12-20T10:52:40.846Z,7.28
2022-12-20T10:55:27.873Z,8.90
2022-12-20T10:57:54.589Z,7.13
2022-12-20T11:05:41.277Z,8.05
2022-12-20T11:08:34.649Z,71.53
2022-12-20T11:18:30.061Z,12.50
2022-12-20T11:21:18.492Z,4.03
2022-12-20T11:26:23.046Z,17.38
2022-12-20T11:31:27.770Z,7.35
2022-12-20T11:36:58.943Z,4.47
2022-12-20T11:41:55.665Z,10.43
2022-12-20T11:44:50.104Z,5.82
2022-12-20T11:47:21.843Z,6.40
2022-12-20T11:49:54.540Z,3.97
2022-12-20T11:52:27.308Z,3.33
2022-12-20T11:55:02.346Z,2.28
2022-12-20T12:14:46.573Z,3.15
2022-12-20T12:24:45.734Z,6.15
2022-12-20T12:32:44.257Z,9.63
2022-12-20T12:35:11.319Z,5.60
2022-12-20T12:37:53.192Z,6.65
2022-12-20T12:42:48.923Z,10.23
2022-12-20T12:45:26.050Z,11.32
2022-12-20T12:47:58.770Z,10.60
2022-12-20T12:50:30.764Z,7.63
2022-12-20T12:53:00.580Z,8.60
2022-12-20T13:00:52.238Z,11.13
2022-12-20T13:03:37.457Z,10.63
2022-12-20T13:06:22.607Z,12.27
2022-12-20T13:08:58.324Z,16.65
2022-12-20T13:11:34.106Z,16.70
2022-12-20T13:14:21.028Z,13.50
2022-12-20T13:19:17.678Z,18.73
2022-12-20T13:24:35.533Z,11.18
2022-12-20T13:27:03.176Z,6.80
2022-12-20T13:29:34.468Z,11.18
2022-12-20T13:32:01.822Z,10.95
2022-12-20T13:42:07.318Z,9.98
2022-12-20T13:44:41.511Z,7.32
2022-12-20T13:49:52.819Z,10.95
2022-12-20T13:52:26.041Z,10.10
2022-12-20T13:57:31.147Z,10.25
2022-12-20T14:00:05.739Z,9.75
2022-12-20T14:02:36.735Z,11.48
2022-12-20T14:09:59.856Z,20.85
2022-12-20T14:12:31.476Z,16.05
2022-12-20T14:17:32.579Z,11.20
2022-12-20T14:20:18.410Z,11.85
2022-12-20T14:22:51.195Z,20.17
2022-12-20T14:25:21.287Z,19.98
2022-12-20T14:27:48.288Z,25.08
2022-12-20T14:32:58.801Z,41.08
2022-12-20T14:35:25.789Z,26.83
2022-12-20T14:37:57.204Z,21.02
2022-12-20T14:40:24.281Z,21.33
2022-12-20T14:42:51.130Z,20.27
2022-12-20T14:50:27.874Z,21.38
2022-12-20T14:52:54.758Z,24.52
2022-12-20T14:55:22.902Z,22.58
2022-12-20T15:02:56.527Z,16.42
2022-12-20T15:05:35.646Z,23.85
2022-12-20T15:11:04.973Z,23.38
2022-12-20T15:13:36.195Z,25.45
2022-12-20T15:16:04.762Z,20.83
2022-12-20T15:18:31.971Z,21.05
2022-12-20T15:21:01.095Z,23.20
2022-12-20T15:23:27.837Z,28.55
2022-12-20T15:25:54.536Z,18.25
2022-12-20T15:28:22.142Z,24.98
2022-12-20T15:30:49.733Z,26.88
2022-12-20T15:33:18.555Z,20.52
2022-12-20T15:35:45.887Z,26.58
2022-12-20T15:38:16.926Z,25.05
2022-12-20T15:40:44.335Z,22.67
2022-12-20T15:43:14.932Z,16.98
2022-12-20T15:45:43.392Z,20.00
2022-12-20T15:48:14.585Z,21.77
2022-12-20T15:50:43.617Z,14.30
2022-12-20T15:53:14.472Z,18.83
2022-12-20T15:55:41.482Z,20.38
2022-12-20T15:58:09.010Z,20.15
2022-12-20T16:00:38.129Z,14.88
2022-12-20T16:03:05.072Z,15.32
2022-12-20T16:05:32.015Z,24.20
2022-12-20T16:08:01.945Z,16.92
2022-12-20T16:10:34.680Z,44.17
2022-12-20T16:22:53.369Z,22.08
2022-12-20T16:30:19.930Z,21.08
2022-12-20T16:32:46.810Z,17.10
2022-12-20T16:35:42.644Z,13.48
2022-12-20T16:45:28.130Z,29.77
2022-12-20T16:47:55.067Z,28.77
2022-12-20T16:50:28.448Z,20.70
2022-12-20T16:52:55.363Z,22.27
2022-12-20T16:55:26.950Z,38.20
2022-12-20T16:57:53.864Z,29.48
2022-12-20T17:00:25.335Z,26.52
2022-12-20T17:02:52.230Z,30.38
2022-12-20T17:05:22.172Z,52.97
2022-12-20T17:07:48.963Z,40.67
2022-12-20T17:10:36.149Z,49.03
2022-12-20T17:13:02.763Z,56.38
2022-12-20T17:15:30.640Z,62.35
2022-12-20T17:17:58.320Z,61.40
2022-12-20T17:20:25.278Z,48.17
2022-12-20T17:22:56.312Z,44.58
2022-12-20T17:30:19.477Z,32.40
2022-12-20T17:32:46.233Z,39.88
2022-12-20T17:37:57.801Z,33.38
2022-12-20T17:40:28.279Z,36.70
2022-12-20T17:52:37.465Z,55.83
2022-12-20T17:55:04.552Z,46.92
2022-12-20T17:57:31.228Z,53.53
2022-12-20T18:04:51.040Z,49.35
2022-12-20T18:07:17.953Z,68.10
2022-12-20T18:09:46.233Z,75.78
2022-12-20T18:12:12.802Z,84.95
2022-12-20T18:17:04.959Z,79.38
2022-12-20T18:19:32.046Z,90.60
2022-12-20T18:22:00.160Z,66.93
2022-12-20T18:26:53.029Z,65.38
2022-12-20T18:29:19.689Z,64.60
2022-12-20T18:39:04.547Z,73.13
2022-12-20T18:41:31.358Z,76.30
2022-12-20T18:43:59.273Z,80.18
2022-12-20T18:46:26.344Z,74.32
2022-12-20T18:48:54.429Z,80.80
2022-12-20T18:51:22.586Z,105.47
2022-12-20T18:53:50.136Z,120.75
2022-12-20T18:56:18.194Z,103.32
2022-12-20T18:58:44.865Z,78.28
2022-12-20T19:01:15.543Z,69.75
2022-12-20T19:03:42.591Z,106.07
2022-12-20T19:06:10.652Z,95.28
2022-12-20T19:08:37.780Z,71.53
2022-12-20T19:11:05.748Z,71.97
2022-12-20T19:13:32.439Z,59.25
2022-12-20T19:18:36.232Z,109.20
2022-12-20T19:21:06.509Z,86.50
2022-12-20T19:33:21.354Z,61.03
2022-12-20T19:35:56.381Z,59.50
2022-12-20T19:43:20.521Z,47.00
2022-12-20T19:45:47.323Z,60.08
2022-12-20T19:48:14.620Z,48.13
2022-12-20T19:50:41.393Z,45.97
2022-12-20T19:53:08.159Z,36.75
2022-12-20T19:58:00.284Z,46.75
2022-12-20T20:00:27.488Z,54.65
2022-12-20T20:02:54.342Z,54.88
2022-12-20T20:05:21.197Z,56.72
2022-12-20T20:07:47.963Z,49.35
2022-12-20T20:10:14.616Z,51.78
2022-12-20T20:12:41.303Z,45.30
2022-12-20T20:15:08.116Z,45.95
2022-12-20T20:17:35.913Z,46.30
2022-12-20T20:20:02.609Z,45.33
2022-12-20T20:22:29.234Z,40.35
2022-12-20T20:34:40.076Z,32.03
2022-12-20T20:37:07.023Z,39.20
2022-12-20T20:39:34.222Z,48.55
2022-12-20T20:42:00.937Z,51.05
2022-12-20T20:44:27.667Z,48.10
2022-12-20T20:54:11.050Z,58.30
2022-12-20T20:56:37.767Z,52.63
2022-12-20T20:59:07.167Z,49.50
2022-12-20T21:01:37.512Z,44.88
2022-12-20T21:04:04.779Z,33.40
2022-12-20T21:06:46.967Z,29.67
2022-12-20T21:09:13.877Z,48.22
2022-12-20T21:11:40.713Z,51.88
2022-12-20T21:14:07.450Z,46.20
2022-12-20T21:16:34.508Z,57.55
2022-12-20T21:19:01.342Z,54.90
2022-12-20T21:21:28.026Z,45.25
2022-12-20T21:23:55.105Z,54.28
2022-12-20T21:26:22.406Z,56.83
2022-12-20T21:28:49.052Z,52.70
2022-12-20T21:33:42.647Z,36.20
2022-12-20T21:36:16.552Z,34.72
2022-12-20T21:38:47.130Z,42.20
2022-12-20T21:41:13.745Z,37.53
2022-12-20T21:46:11.358Z,38.42
2022-12-20T21:48:39.361Z,34.63
2022-12-20T21:53:32.301Z,33.05
2022-12-20T21:55:59.878Z,25.58
2022-12-20T22:00:55.122Z,18.33
2022-12-20T22:03:22.927Z,26.63
2022-12-20T22:05:50.588Z,23.25
2022-12-20T22:08:18.111Z,31.48
2022-12-20T22:10:45.246Z,26.10
2022-12-20T22:13:12.530Z,16.80
2022-12-20T22:15:39.478Z,21.33
2022-12-20T22:18:06.762Z,20.83
2022-12-20T22:20:35.079Z,32.50
2022-12-20T22:23:02.057Z,25.88
2022-12-20T22:25:28.841Z,29.45
2022-12-20T22:27:55.607Z,30.80
2022-12-20T22:32:48.487Z,27.73
2022-12-20T22:35:22.225Z,26.73
2022-12-20T22:42:40.202Z,19.40
2022-12-20T22:49:58.641Z,42.63
2022-12-20T22:52:25.412Z,35.95
2022-12-20T22:54:52.314Z,37.38
2022-12-20T22:57:19.022Z,43.10
2022-12-20T22:59:45.637Z,30.98
2022-12-20T23:02:12.353Z,36.92
2022-12-20T23:07:04.992Z,42.13
2022-12-20T23:09:31.734Z,39.25
2022-12-20T23:12:16.713Z,24.20
2022-12-20T23:15:04.257Z,18.65
2022-12-20T23:22:41.758Z,28.10
2022-12-20T23:25:08.520Z,25.80
2022-12-20T23:27:35.330Z,28.80
2022-12-20T23:32:29.149Z,30.33
2022-12-20T23:34:55.817Z,21.73
2022-12-20T23:39:47.881Z,24.00
2022-12-20T23:42:14.776Z,25.75
2022-12-20T23:49:32.530Z,23.73
2022-12-20T23:51:59.198Z,22.55
2022-12-20T23:54:25.837Z,25.83
2022-12-20T23:56:52.592Z,31.55
2022-12-20T23:59:19.233Z,22.77
